PACV METAR and TAF weather

Enter ICAO airport designator
Station Type Date Time Source
PACV METAR 2021/07/30 21:53 UTC NOAA

PACV 302153Z VRB06KT 10SM FEW029 BKN150 18/11 A3015 RMK AO2 SLP210 T01830111


Station Type Date Time Source
PACV Decoded METAR 2021/07/30 21:53 UTC NOAA

MERLE K. SMITH AIRPORT, AK, United States (PACV) 60-30N 145-29W 13M
Jul 30, 2021 - 05:53 PM EDT / 2021.07.30 2153 UTC
Wind: Variable at 7 MPH (6 KT):0
Visibility: 10 mile(s):0
Sky conditions: mostly cloudy
Temperature: 64.9 F (18.3 C)
Dew Point: 52.0 F (11.1 C)
Relative Humidity: 62%
Pressure (altimeter): 30.15 in. Hg (1020 hPa)
ob: PACV 302153Z VRB06KT 10SM FEW029 BKN150 18/11 A3015 RMK AO2 SLP210 T01830111
cycle: 22

Station Type Date Time Source
PACV TAF 2021/07/30 18:42 UTC NOAA

TAF PACV 301740Z 3018/3118 00000KT P6SM FEW003 SCT010 OVC035
TEMPO 3018/3020 BKN003
FM302000 25005KT P6SM FEW015 BKN030
FM310200 VRB04KT P6SM BKN080

Example: see airport list